TimeEDT,TemperatureF,Dew PointF,Humidity,Sea Level PressureIn,VisibilityMPH,Wind Direction,Wind SpeedMPH,Gust SpeedMPH,PrecipitationIn,Events,Conditions,WindDirDegrees,DateUTC
12:54 AM,28.0,17.1,63,30.49,10.0,SSW,10.4,-,N/A,,Clear,210,2012-03-11 05:54:00
1:54 AM,27.0,17.1,66,30.48,10.0,SSW,6.9,-,N/A,,Clear,210,2012-03-11 06:54:00
3:54 AM,28.0,18.0,66,30.47,10.0,SW,10.4,-,N/A,,Clear,230,2012-03-11 07:54:00
4:54 AM,28.9,16.0,58,30.46,10.0,SW,16.1,-,N/A,,Clear,230,2012-03-11 08:54:00
5:54 AM,28.9,17.1,61,30.45,10.0,SW,13.8,-,N/A,,Clear,230,2012-03-11 09:54:00
6:54 AM,28.9,18.0,64,30.44,10.0,SW,11.5,-,N/A,,Clear,220,2012-03-11 10:54:00
7:54 AM,30.2,17.6,60,30.40,10.0,SW,12.7,-,N/A,,Clear,220,2012-03-11 11:54:00
8:54 AM,34.0,16.0,48,30.45,10.0,SW,17.3,26.5,N/A,,Clear,230,2012-03-11 12:54:00
9:54 AM,37.9,14.0,38,30.43,10.0,WSW,21.9,29.9,N/A,,Clear,240,2012-03-11 13:54:00
10:54 AM,41.0,15.1,35,30.41,10.0,SW,17.3,24.2,N/A,,Clear,230,2012-03-11 14:54:00
11:54 AM,44.1,16.0,32,30.39,10.0,SW,12.7,21.9,N/A,,Clear,220,2012-03-11 15:54:00
12:54 PM,46.9,17.1,30,30.37,10.0,WSW,13.8,21.9,N/A,,Clear,250,2012-03-11 16:54:00
1:54 PM,50.0,19.0,29,30.33,10.0,WSW,12.7,21.9,N/A,,Clear,250,2012-03-11 17:54:00
2:54 PM,52.0,19.0,27,30.30,10.0,West,16.1,23.0,N/A,,Clear,260,2012-03-11 18:54:00
3:54 PM,54.0,19.9,26,30.29,10.0,WSW,16.1,21.9,N/A,,Clear,250,2012-03-11 19:54:00
4:54 PM,53.1,21.0,29,30.28,10.0,SW,16.1,20.7,N/A,,Clear,220,2012-03-11 20:54:00
5:54 PM,53.1,21.9,30,30.28,10.0,SW,11.5,-,N/A,,Clear,230,2012-03-11 21:54:00
6:54 PM,50.0,21.9,33,30.29,10.0,SW,8.1,-,N/A,,Clear,220,2012-03-11 22:54:00
7:54 PM,48.0,23.0,37,30.30,10.0,SW,6.9,-,N/A,,Clear,220,2012-03-11 23:54:00
8:54 PM,46.0,25.0,44,30.30,10.0,SW,12.7,-,N/A,,Clear,230,2012-03-12 00:54:00
9:54 PM,44.1,26.1,49,30.30,10.0,WSW,12.7,-,N/A,,Clear,240,2012-03-12 01:54:00
10:54 PM,43.0,28.0,56,30.29,10.0,WSW,13.8,-,N/A,,Clear,240,2012-03-12 02:54:00
11:54 PM,43.0,28.0,56,30.27,10.0,WSW,12.7,-,N/A,,Clear,250,2012-03-12 03:54:00
12:54 AM,44.1,28.0,53,30.27,10.0,West,15.0,-,N/A,,Clear,260,2012-03-12 04:54:00